createdAt,value
2019-06-27T00:01:39.985Z,9.37
2019-06-27T00:04:11.211Z,10.10
2019-06-27T00:06:42.090Z,10.60
2019-06-27T00:09:14.535Z,10.73
2019-06-27T00:11:45.256Z,10.70
2019-06-27T00:14:15.925Z,9.77
2019-06-27T00:16:46.669Z,9.90
2019-06-27T00:19:17.461Z,9.47
2019-06-27T00:21:48.250Z,8.90
2019-06-27T00:24:19.105Z,9.00
2019-06-27T00:26:57.041Z,9.40
2019-06-27T00:29:22.442Z,9.80
2019-06-27T00:31:53.266Z,9.97
2019-06-27T00:34:24.058Z,10.60
2019-06-27T00:36:54.827Z,10.37
2019-06-27T00:39:25.602Z,9.73
2019-06-27T00:41:56.441Z,10.07
2019-06-27T00:44:27.223Z,9.77
2019-06-27T00:46:58.028Z,10.63
2019-06-27T00:49:28.716Z,10.23
2019-06-27T00:51:59.582Z,10.13
2019-06-27T00:54:30.331Z,9.43
2019-06-27T00:57:13.659Z,10.10
2019-06-27T00:59:33.940Z,9.73
2019-06-27T01:02:04.728Z,9.77
2019-06-27T01:04:35.438Z,10.40
2019-06-27T01:07:06.294Z,10.03
2019-06-27T01:09:37.149Z,11.10
2019-06-27T01:12:07.876Z,11.50
2019-06-27T01:14:38.645Z,11.40
2019-06-27T01:17:09.806Z,10.70
2019-06-27T01:19:40.660Z,10.40
2019-06-27T01:22:11.940Z,10.70
2019-06-27T01:24:42.696Z,11.47
2019-06-27T01:27:28.875Z,11.30
2019-06-27T01:29:45.852Z,12.03
2019-06-27T01:32:16.558Z,11.13
2019-06-27T01:34:47.490Z,10.47
2019-06-27T01:37:18.298Z,10.53
2019-06-27T01:39:51.676Z,10.70
2019-06-27T01:42:22.422Z,11.07
2019-06-27T01:44:58.065Z,11.03
2019-06-27T01:47:28.840Z,10.00
2019-06-27T01:49:59.670Z,9.93
2019-06-27T01:52:30.520Z,10.23
2019-06-27T01:55:01.286Z,10.17
2019-06-27T01:57:46.156Z,10.10
2019-06-27T02:00:11.119Z,10.20
2019-06-27T02:02:42.004Z,10.37
2019-06-27T02:05:13.766Z,10.47
2019-06-27T02:07:44.730Z,11.23
2019-06-27T02:10:15.968Z,11.43
2019-06-27T02:12:46.832Z,10.93
2019-06-27T02:15:22.089Z,11.50
2019-06-27T02:17:51.927Z,11.53
2019-06-27T02:20:22.758Z,11.53
2019-06-27T02:22:53.558Z,11.67
2019-06-27T02:25:24.499Z,11.27
2019-06-27T02:28:03.769Z,10.83
2019-06-27T02:30:30.823Z,12.30
2019-06-27T02:33:01.569Z,12.83
2019-06-27T02:35:32.488Z,12.03
2019-06-27T02:38:03.349Z,12.20
2019-06-27T02:40:34.145Z,11.70
2019-06-27T02:43:05.125Z,11.60
2019-06-27T02:45:35.891Z,12.20
2019-06-27T02:48:06.755Z,11.70
2019-06-27T02:50:37.600Z,13.10
2019-06-27T02:53:08.458Z,13.10
2019-06-27T02:55:39.237Z,11.87
2019-06-27T02:58:28.746Z,11.83
2019-06-27T03:00:42.415Z,11.67
2019-06-27T03:03:13.141Z,11.97
2019-06-27T03:05:43.968Z,12.17
2019-06-27T03:08:15.026Z,12.57
2019-06-27T03:10:45.898Z,12.30
2019-06-27T03:13:16.753Z,12.17
2019-06-27T03:15:47.542Z,11.67
2019-06-27T03:18:18.394Z,12.00
2019-06-27T03:20:49.085Z,13.07
2019-06-27T03:23:19.871Z,12.30
2019-06-27T03:25:50.561Z,12.77
2019-06-27T03:28:21.445Z,13.10
2019-06-27T03:30:52.326Z,12.63
2019-06-27T03:33:23.049Z,13.10
2019-06-27T03:35:54.102Z,12.60
2019-06-27T03:38:25.064Z,13.80
2019-06-27T03:40:55.872Z,13.13
2019-06-27T03:43:26.577Z,12.87
2019-06-27T03:45:57.372Z,13.03
2019-06-27T03:48:28.228Z,13.13
2019-06-27T03:50:58.938Z,12.90
2019-06-27T03:53:29.664Z,13.00
2019-06-27T03:56:03.241Z,12.37
2019-06-27T03:58:34.127Z,13.97
2019-06-27T04:01:05.219Z,13.37
2019-06-27T04:03:35.994Z,12.87
2019-06-27T04:06:06.676Z,12.63
2019-06-27T04:08:37.390Z,13.07
2019-06-27T04:11:08.072Z,13.43
2019-06-27T04:13:38.868Z,12.97
2019-06-27T04:16:09.660Z,12.80
2019-06-27T04:18:40.598Z,12.20
2019-06-27T04:21:14.559Z,12.90
2019-06-27T04:23:45.396Z,12.90
2019-06-27T04:26:16.270Z,12.93
2019-06-27T04:28:47.185Z,11.97
2019-06-27T04:31:17.976Z,12.47
2019-06-27T04:33:48.833Z,13.03
2019-06-27T04:36:19.616Z,11.57
2019-06-27T04:38:50.601Z,11.80
2019-06-27T04:41:21.486Z,11.47
2019-06-27T04:43:52.266Z,10.90
2019-06-27T04:46:23.630Z,11.30
2019-06-27T04:48:54.421Z,10.87
2019-06-27T04:51:25.371Z,10.90
2019-06-27T04:53:56.163Z,10.80
2019-06-27T04:56:26.884Z,10.93
2019-06-27T04:58:57.589Z,10.90
2019-06-27T05:01:28.286Z,11.70
2019-06-27T05:03:59.061Z,11.20
2019-06-27T05:06:29.905Z,11.60
2019-06-27T05:09:00.671Z,12.47
2019-06-27T05:11:31.465Z,10.83
2019-06-27T05:14:02.181Z,11.00
2019-06-27T05:16:32.943Z,10.60
2019-06-27T05:19:03.666Z,9.73
2019-06-27T05:21:34.382Z,9.63
2019-06-27T05:24:05.240Z,8.87
2019-06-27T05:26:36.972Z,10.03
2019-06-27T05:29:07.672Z,9.37
2019-06-27T05:31:38.409Z,9.57
2019-06-27T05:34:09.114Z,8.80
2019-06-27T05:36:39.804Z,8.53
2019-06-27T05:39:10.652Z,8.40
2019-06-27T05:41:41.458Z,7.97
2019-06-27T05:44:12.170Z,8.90
2019-06-27T05:46:42.848Z,8.07
2019-06-27T05:49:13.774Z,9.53
2019-06-27T05:51:44.476Z,9.27
2019-06-27T05:54:15.344Z,7.87
2019-06-27T05:56:46.485Z,8.57
2019-06-27T05:59:17.310Z,8.93
2019-06-27T06:01:48.166Z,7.27
2019-06-27T06:04:18.877Z,6.97
2019-06-27T06:06:49.592Z,7.37
2019-06-27T06:09:20.353Z,6.83
2019-06-27T06:11:51.320Z,6.17
2019-06-27T06:14:22.177Z,6.60
2019-06-27T06:16:53.027Z,6.77
2019-06-27T06:19:23.860Z,6.05
2019-06-27T06:21:55.039Z,5.83
2019-06-27T06:24:25.993Z,6.30
2019-06-27T06:26:56.755Z,6.45
2019-06-27T06:29:27.522Z,6.03
2019-06-27T06:31:58.308Z,5.60
2019-06-27T06:34:29.148Z,5.60
2019-06-27T06:36:59.986Z,6.05
2019-06-27T06:39:30.893Z,6.47
2019-06-27T06:42:01.641Z,5.22
2019-06-27T06:44:32.809Z,5.50
2019-06-27T06:47:03.621Z,5.83
2019-06-27T06:49:34.505Z,5.28
2019-06-27T06:52:05.344Z,6.42
2019-06-27T06:54:36.138Z,6.33
2019-06-27T06:57:06.981Z,6.45
2019-06-27T06:59:37.952Z,5.65
2019-06-27T07:02:08.872Z,5.80
2019-06-27T07:04:39.765Z,5.70
2019-06-27T07:07:13.165Z,5.92
2019-06-27T07:09:43.197Z,6.03
2019-06-27T07:12:14.120Z,5.40
2019-06-27T07:14:44.969Z,5.47
2019-06-27T07:17:15.849Z,5.65
2019-06-27T07:19:46.690Z,5.65
2019-06-27T07:22:20.523Z,5.80
2019-06-27T07:24:51.369Z,5.95
2019-06-27T07:27:22.224Z,5.72
2019-06-27T07:29:53.081Z,6.10
2019-06-27T07:32:23.826Z,7.33
2019-06-27T07:34:54.709Z,6.65
2019-06-27T07:37:25.498Z,6.65
2019-06-27T07:39:56.420Z,6.03
2019-06-27T07:42:27.212Z,6.15
2019-06-27T07:44:58.025Z,6.55
2019-06-27T07:47:28.874Z,6.15
2019-06-27T07:49:59.673Z,5.90
2019-06-27T07:52:30.662Z,6.40
2019-06-27T07:55:01.586Z,6.42
2019-06-27T07:57:32.456Z,6.28
2019-06-27T08:00:08.000Z,6.28
2019-06-27T08:02:38.998Z,6.20
2019-06-27T08:05:10.537Z,5.65
2019-06-27T08:07:41.737Z,6.03
2019-06-27T08:10:14.393Z,5.80
2019-06-27T08:12:45.228Z,5.70
2019-06-27T08:15:16.658Z,5.70
2019-06-27T08:17:47.478Z,5.87
2019-06-27T08:20:18.482Z,5.12
2019-06-27T08:22:49.285Z,5.28
2019-06-27T08:25:20.486Z,5.47
2019-06-27T08:27:51.327Z,6.33
2019-06-27T08:30:22.328Z,6.55
2019-06-27T08:32:56.207Z,5.40
2019-06-27T08:35:26.997Z,5.80
2019-06-27T08:37:57.829Z,6.85
2019-06-27T08:40:28.786Z,5.60
2019-06-27T08:42:59.612Z,6.50
2019-06-27T08:45:30.476Z,5.60
2019-06-27T08:48:01.326Z,5.47
2019-06-27T08:50:32.194Z,5.40
2019-06-27T08:53:03.095Z,5.20
2019-06-27T08:55:33.959Z,5.10
2019-06-27T08:58:04.821Z,5.60
2019-06-27T09:00:35.679Z,6.15
2019-06-27T09:03:06.644Z,6.50
2019-06-27T09:05:37.696Z,5.85
2019-06-27T09:08:08.642Z,6.70
2019-06-27T09:10:39.621Z,6.65
2019-06-27T09:13:10.452Z,6.42
2019-06-27T09:15:41.313Z,6.20
2019-06-27T09:18:12.223Z,6.30
2019-06-27T09:20:43.070Z,6.87
2019-06-27T09:23:14.051Z,6.37
2019-06-27T09:25:44.975Z,6.25
2019-06-27T09:28:16.146Z,6.10
2019-06-27T09:30:47.010Z,5.37
2019-06-27T09:33:17.878Z,5.90
2019-06-27T09:35:48.644Z,5.40
2019-06-27T09:38:19.415Z,6.33
2019-06-27T09:40:50.197Z,6.08
2019-06-27T09:43:21.101Z,5.58
2019-06-27T09:45:51.929Z,5.83
2019-06-27T09:48:23.091Z,6.20
2019-06-27T09:50:54.063Z,10.48
2019-06-27T09:53:24.983Z,5.47
2019-06-27T09:55:55.774Z,5.72
2019-06-27T09:58:26.538Z,6.75
2019-06-27T10:00:57.483Z,4.85
2019-06-27T10:03:28.282Z,5.50
2019-06-27T10:05:59.146Z,4.95
2019-06-27T10:08:29.990Z,5.60
2019-06-27T10:11:00.868Z,5.70
2019-06-27T10:13:31.889Z,5.70
2019-06-27T10:16:02.757Z,6.05
2019-06-27T10:18:33.510Z,5.42
2019-06-27T10:21:04.413Z,5.25
2019-06-27T10:23:35.161Z,5.97
2019-06-27T10:26:06.126Z,5.12
2019-06-27T10:28:36.994Z,5.30
2019-06-27T10:31:07.910Z,5.95
2019-06-27T10:33:38.673Z,4.33
2019-06-27T10:36:09.587Z,4.65
2019-06-27T10:38:40.457Z,4.50
2019-06-27T10:41:11.304Z,3.85
2019-06-27T10:43:42.213Z,6.22
2019-06-27T10:46:13.062Z,4.00
2019-06-27T10:48:43.896Z,4.70
2019-06-27T10:51:14.784Z,3.70
2019-06-27T10:53:45.666Z,3.98
2019-06-27T10:56:16.446Z,4.28
2019-06-27T10:58:47.306Z,4.28
2019-06-27T11:01:18.564Z,4.25
2019-06-27T11:03:50.036Z,3.62
2019-06-27T11:06:20.861Z,3.65
2019-06-27T11:08:51.618Z,3.60
2019-06-27T11:11:22.474Z,3.92
2019-06-27T11:13:58.887Z,3.77
2019-06-27T11:16:26.380Z,4.25
2019-06-27T11:18:57.556Z,4.00
2019-06-27T11:21:28.413Z,3.70
2019-06-27T11:23:59.181Z,3.20
2019-06-27T11:26:29.961Z,3.72
2019-06-27T11:29:00.857Z,3.67
2019-06-27T11:31:31.645Z,4.58
2019-06-27T11:34:02.410Z,3.10
2019-06-27T11:36:33.310Z,3.45
2019-06-27T11:39:05.593Z,3.35
2019-06-27T11:41:36.372Z,5.37
2019-06-27T11:44:07.235Z,4.05
2019-06-27T11:46:38.050Z,3.50
2019-06-27T11:49:08.842Z,3.50
2019-06-27T11:51:39.606Z,3.52
2019-06-27T11:54:10.378Z,3.90
2019-06-27T11:56:41.367Z,3.20
2019-06-27T11:59:12.294Z,4.60
2019-06-27T12:01:43.833Z,4.15
2019-06-27T12:04:14.706Z,4.90
2019-06-27T12:06:45.569Z,3.75
2019-06-27T12:09:16.383Z,3.72
2019-06-27T12:11:47.178Z,3.92
2019-06-27T12:14:19.621Z,3.22
2019-06-27T12:16:50.560Z,2.70
2019-06-27T12:19:21.385Z,3.30
2019-06-27T12:21:52.150Z,3.00
2019-06-27T12:24:23.026Z,3.05
2019-06-27T12:26:53.871Z,3.10
2019-06-27T12:29:24.614Z,2.65
2019-06-27T12:31:55.401Z,2.83
2019-06-27T12:34:26.152Z,2.40
2019-06-27T12:36:56.914Z,2.65
2019-06-27T12:39:27.694Z,2.00
2019-06-27T12:41:59.009Z,2.47
2019-06-27T12:44:29.870Z,2.12
2019-06-27T12:47:00.788Z,2.35
2019-06-27T12:49:50.136Z,1.90
2019-06-27T12:52:04.164Z,1.98
2019-06-27T12:54:35.070Z,1.62
2019-06-27T12:57:05.918Z,1.77
2019-06-27T12:59:39.548Z,1.70
2019-06-27T13:02:11.622Z,1.70
2019-06-27T13:04:41.935Z,1.70
2019-06-27T13:07:12.782Z,1.75
2019-06-27T13:09:43.635Z,1.40
2019-06-27T13:12:14.451Z,1.62
2019-06-27T13:14:45.314Z,1.62
2019-06-27T13:17:16.180Z,1.80
2019-06-27T13:19:47.470Z,1.40
2019-06-27T13:22:18.255Z,1.60
2019-06-27T13:24:49.059Z,1.30
2019-06-27T13:27:19.979Z,1.27
2019-06-27T13:29:53.685Z,1.32
2019-06-27T13:32:25.563Z,1.40
2019-06-27T13:34:56.500Z,1.17
2019-06-27T13:37:29.990Z,1.22
2019-06-27T13:39:59.857Z,1.30
2019-06-27T13:42:30.632Z,1.57
2019-06-27T13:45:01.547Z,1.27
2019-06-27T13:47:32.303Z,1.02
2019-06-27T13:50:03.341Z,1.00
2019-06-27T13:52:34.162Z,1.20
2019-06-27T13:55:05.437Z,1.20
2019-06-27T13:57:36.297Z,1.02
2019-06-27T14:00:08.187Z,1.37
2019-06-27T14:02:39.110Z,1.00
2019-06-27T14:05:10.024Z,0.85
2019-06-27T14:07:40.883Z,0.90
2019-06-27T14:10:12.111Z,0.93
2019-06-27T14:12:44.839Z,0.70
2019-06-27T14:15:15.706Z,0.70
2019-06-27T14:17:46.583Z,0.65
2019-06-27T14:20:17.483Z,0.78
2019-06-27T14:22:48.598Z,0.57
2019-06-27T14:25:31.323Z,0.70
2019-06-27T14:28:39.019Z,0.70
2019-06-27T14:31:13.875Z,0.80
2019-06-27T14:33:44.849Z,0.68
2019-06-27T14:36:15.617Z,0.40
2019-06-27T14:38:46.550Z,0.55
2019-06-27T14:41:17.308Z,0.42
2019-06-27T14:43:48.168Z,0.50
2019-06-27T14:46:19.050Z,0.40
2019-06-27T14:48:49.976Z,0.57
2019-06-27T14:51:20.896Z,1.00
2019-06-27T14:53:51.734Z,0.80
2019-06-27T14:56:22.659Z,0.80
2019-06-27T14:58:53.799Z,1.10
2019-06-27T15:01:24.662Z,0.80
2019-06-27T15:03:55.460Z,0.55
2019-06-27T15:06:26.360Z,0.60
2019-06-27T15:08:57.207Z,0.60
2019-06-27T15:11:28.091Z,0.57
2019-06-27T15:13:58.910Z,0.53
2019-06-27T15:16:29.735Z,0.50
2019-06-27T15:19:00.512Z,1.10
2019-06-27T15:21:31.364Z,0.75
2019-06-27T15:24:02.281Z,0.88
2019-06-27T15:26:33.144Z,1.00
2019-06-27T15:29:04.003Z,0.90
2019-06-27T15:31:36.681Z,0.98
2019-06-27T15:34:07.502Z,0.70
2019-06-27T15:36:38.757Z,0.90
2019-06-27T15:39:12.054Z,0.98
2019-06-27T15:41:42.194Z,1.25
2019-06-27T15:44:12.972Z,0.75
2019-06-27T15:46:43.853Z,0.85
2019-06-27T15:49:14.626Z,0.90
2019-06-27T15:51:45.393Z,1.30
2019-06-27T15:54:16.257Z,1.10
2019-06-27T15:56:47.162Z,1.40
2019-06-27T15:59:17.929Z,0.78
2019-06-27T16:01:48.856Z,1.32
2019-06-27T16:04:32.543Z,1.40
2019-06-27T16:06:52.720Z,1.20
2019-06-27T16:09:23.495Z,1.10
2019-06-27T16:11:54.586Z,0.90
2019-06-27T16:14:25.362Z,1.10
2019-06-27T16:16:56.292Z,1.15
2019-06-27T16:19:27.242Z,0.88
2019-06-27T16:21:58.227Z,0.80
2019-06-27T16:24:29.156Z,0.90
2019-06-27T16:27:06.443Z,1.17
2019-06-27T16:29:38.820Z,0.80
2019-06-27T16:32:09.748Z,1.12
2019-06-27T16:34:40.664Z,0.72
2019-06-27T16:37:11.722Z,0.98
2019-06-27T16:39:42.643Z,1.10
2019-06-27T16:42:13.583Z,1.20
2019-06-27T16:44:44.582Z,1.00
2019-06-27T16:47:15.837Z,0.95
2019-06-27T16:49:46.693Z,0.90
2019-06-27T16:52:17.615Z,0.90
2019-06-27T16:54:48.532Z,1.80
2019-06-27T16:57:19.456Z,1.60
2019-06-27T16:59:50.375Z,0.90
2019-06-27T17:02:21.116Z,1.10
2019-06-27T17:04:52.086Z,1.25
2019-06-27T17:07:23.043Z,1.00
2019-06-27T17:09:53.967Z,0.93
2019-06-27T17:12:24.947Z,0.95
2019-06-27T17:17:32.189Z,1.27
2019-06-27T17:20:05.552Z,1.72
2019-06-27T17:22:57.637Z,1.02
2019-06-27T17:25:37.329Z,0.90
2019-06-27T17:28:08.344Z,1.10
2019-06-27T17:30:42.633Z,0.80
2019-06-27T17:33:22.970Z,1.37
2019-06-27T17:35:56.482Z,2.15
2019-06-27T17:38:27.399Z,1.20
2019-06-27T17:40:59.011Z,1.00
2019-06-27T17:43:29.904Z,0.93
2019-06-27T17:46:00.767Z,0.95
2019-06-27T17:48:34.681Z,1.00
2019-06-27T17:51:07.818Z,0.72
2019-06-27T17:53:38.236Z,1.10
2019-06-27T17:56:10.233Z,1.10
2019-06-27T17:58:41.194Z,1.10
2019-06-27T18:01:12.115Z,1.10
2019-06-27T18:03:43.288Z,1.05
2019-06-27T18:06:14.160Z,0.90
2019-06-27T18:08:45.328Z,1.02
2019-06-27T18:11:16.204Z,0.82
2019-06-27T18:13:47.154Z,1.00
2019-06-27T18:16:18.032Z,1.10
2019-06-27T18:18:48.964Z,1.02
2019-06-27T18:21:19.816Z,1.10
2019-06-27T18:23:50.830Z,1.60
2019-06-27T18:26:21.721Z,1.30
2019-06-27T18:28:52.663Z,1.25
2019-06-27T18:31:23.694Z,1.20
2019-06-27T18:33:54.605Z,1.10
2019-06-27T18:36:25.590Z,1.42
2019-06-27T18:38:56.444Z,1.80
2019-06-27T18:41:27.259Z,1.27
2019-06-27T18:43:58.382Z,1.12
2019-06-27T18:46:29.493Z,1.20
2019-06-27T18:49:00.725Z,1.40
2019-06-27T18:51:31.655Z,1.43
2019-06-27T18:54:02.418Z,1.87
2019-06-27T18:56:33.562Z,1.65
2019-06-27T18:59:04.818Z,1.52
2019-06-27T19:01:35.820Z,1.30
2019-06-27T19:04:06.854Z,1.20
2019-06-27T19:06:37.882Z,1.30
2019-06-27T19:09:09.158Z,1.30
2019-06-27T19:11:39.996Z,1.10
2019-06-27T19:14:10.853Z,1.17
2019-06-27T19:16:41.668Z,2.17
2019-06-27T19:19:14.185Z,1.27
2019-06-27T19:21:46.616Z,1.80
2019-06-27T19:24:19.102Z,1.20
2019-06-27T19:26:53.277Z,1.40
2019-06-27T19:29:25.891Z,1.00
2019-06-27T19:31:56.824Z,1.30
2019-06-27T19:34:27.677Z,1.33
2019-06-27T19:37:01.511Z,1.33
2019-06-27T19:39:32.325Z,1.70
2019-06-27T19:42:03.173Z,1.70
2019-06-27T19:44:34.078Z,2.50
2019-06-27T19:47:04.931Z,1.40
2019-06-27T19:49:35.745Z,1.43
2019-06-27T19:52:06.601Z,1.10
2019-06-27T19:54:37.289Z,2.00
2019-06-27T19:57:08.093Z,1.43
2019-06-27T19:59:38.853Z,2.73
2019-06-27T20:02:09.823Z,1.80
2019-06-27T20:04:41.428Z,1.73
2019-06-27T20:07:12.237Z,1.60
2019-06-27T20:09:43.227Z,2.60
2019-06-27T20:12:14.066Z,1.70
2019-06-27T20:14:44.836Z,1.90
2019-06-27T20:17:16.699Z,1.37
2019-06-27T20:19:47.508Z,1.60
2019-06-27T20:22:18.298Z,1.13
2019-06-27T20:24:49.133Z,1.50
2019-06-27T20:27:19.962Z,1.93
2019-06-27T20:29:50.728Z,2.23
2019-06-27T20:32:21.458Z,2.20
2019-06-27T20:34:52.214Z,1.33
2019-06-27T20:37:22.960Z,1.30
2019-06-27T20:39:53.825Z,1.40
2019-06-27T20:42:24.638Z,1.37
2019-06-27T20:44:55.433Z,1.10
2019-06-27T20:47:26.258Z,1.50
2019-06-27T20:49:57.018Z,1.33
2019-06-27T20:52:27.806Z,1.40
2019-06-27T20:54:58.639Z,1.43
2019-06-27T20:57:29.442Z,4.30
2019-06-27T21:00:00.247Z,2.00
2019-06-27T21:02:31.015Z,1.90
2019-06-27T21:05:01.950Z,1.53
2019-06-27T21:07:33.019Z,1.30
2019-06-27T21:10:08.627Z,1.40
2019-06-27T21:12:39.397Z,1.40
2019-06-27T21:15:11.834Z,1.20
2019-06-27T21:17:42.783Z,1.33
2019-06-27T21:20:13.828Z,1.47
2019-06-27T21:22:46.100Z,1.73
2019-06-27T21:25:17.288Z,1.70
2019-06-27T21:27:48.391Z,1.30
2019-06-27T21:30:19.225Z,1.63
2019-06-27T21:32:50.022Z,1.60
2019-06-27T21:35:20.780Z,1.30
2019-06-27T21:37:54.839Z,1.30
2019-06-27T21:40:25.722Z,1.30
2019-06-27T21:42:56.612Z,1.43
2019-06-27T21:45:27.697Z,1.43
2019-06-27T21:47:58.602Z,1.50
2019-06-27T21:50:29.388Z,1.37
2019-06-27T21:53:00.153Z,1.60
2019-06-27T21:55:31.088Z,1.37
2019-06-27T21:58:01.848Z,1.70
2019-06-27T22:00:33.403Z,1.27
2019-06-27T22:03:04.693Z,1.30
2019-06-27T22:05:35.486Z,2.00
2019-06-27T22:08:06.326Z,1.80
2019-06-27T22:10:37.318Z,2.03
2019-06-27T22:13:08.093Z,2.60
2019-06-27T22:15:38.955Z,2.20
2019-06-27T22:18:09.795Z,2.67
2019-06-27T22:20:40.648Z,2.13
2019-06-27T22:23:11.465Z,2.90
2019-06-27T22:25:42.238Z,2.33
2019-06-27T22:28:13.203Z,3.07
2019-06-27T22:30:44.704Z,2.97
2019-06-27T22:33:15.540Z,2.80
2019-06-27T22:35:46.311Z,5.30
2019-06-27T22:38:34.867Z,2.60
2019-06-27T22:41:23.972Z,3.07
2019-06-27T22:44:12.892Z,1.87
2019-06-27T22:47:01.303Z,3.03
2019-06-27T22:49:31.787Z,2.53
2019-06-27T22:52:16.057Z,3.30
2019-06-27T22:54:51.226Z,5.23
2019-06-27T22:57:22.144Z,8.17
2019-06-27T22:59:53.063Z,10.40
2019-06-27T23:02:23.773Z,3.20
2019-06-27T23:04:54.540Z,10.10
2019-06-27T23:07:25.270Z,7.37
2019-06-27T23:09:57.489Z,5.00
2019-06-27T23:12:28.457Z,9.27
2019-06-27T23:14:59.148Z,3.10
2019-06-27T23:17:29.923Z,3.03
2019-06-27T23:20:00.722Z,2.10
2019-06-27T23:22:31.495Z,2.07
2019-06-27T23:25:02.302Z,2.93
2019-06-27T23:27:33.105Z,2.20
2019-06-27T23:30:04.670Z,1.93
2019-06-27T23:32:35.372Z,2.10
2019-06-27T23:35:07.321Z,2.40
2019-06-27T23:37:41.084Z,2.70
2019-06-27T23:40:15.041Z,2.60
2019-06-27T23:42:46.016Z,3.63
2019-06-27T23:45:16.868Z,2.73
2019-06-27T23:47:47.726Z,2.70
2019-06-27T23:50:21.280Z,1.70
2019-06-27T23:52:52.033Z,1.80
2019-06-27T23:55:22.911Z,2.03
2019-06-27T23:57:53.600Z,1.93
